Time;durP1;ratioP1;P1;durP2;ratioP2;P2;SDS_P1;SDS_P2;PMS_P1;PMS_P2;Temp;Humidity;BMP_temperature;BMP_pressure;BME280_temperature;BME280_humidity;BME280_pressure;Samples;Min_cycle;Max_cycle;Signal;HPM_P1;HPM_P2
2022/12/05 06:03:43;;;;;;;20.40;10.20;;;4.00;99.90;;;;;;4865689;29;20132;-76
2022/12/05 06:06:12;;;;;;;21.95;11.38;;;4.00;99.90;;;;;;4869830;29;20053;-77
2022/12/05 06:08:40;;;;;;;26.23;11.57;;;4.10;99.90;;;;;;4869348;29;20025;-76
2022/12/05 06:11:11;;;;;;;26.15;12.07;;;4.10;99.90;;;;;;4853835;29;20029;-75
2022/12/05 06:13:37;;;;;;;27.25;11.98;;;4.20;99.90;;;;;;4869986;29;20087;-76
2022/12/05 06:16:05;;;;;;;23.77;10.88;;;4.10;99.90;;;;;;4869418;29;20029;-75
2022/12/05 06:18:31;;;;;;;21.75;10.20;;;4.10;99.90;;;;;;4869240;29;20281;-77
2022/12/05 06:20:57;;;;;;;22.27;10.55;;;4.00;99.90;;;;;;4869759;29;20041;-76
2022/12/05 06:23:26;;;;;;;21.90;10.02;;;4.00;99.90;;;;;;4865333;29;20030;-76
2022/12/05 06:25:54;;;;;;;20.80;10.90;;;4.00;99.90;;;;;;4837943;29;20248;-75
2022/12/05 06:28:22;;;;;;;22.65;10.32;;;4.00;99.90;;;;;;4869051;29;20041;-76
2022/12/05 06:30:48;;;;;;;20.45;10.40;;;4.00;99.90;;;;;;4869211;29;20331;-75
2022/12/05 06:33:14;;;;;;;24.48;10.95;;;4.00;99.90;;;;;;4868945;29;20073;-74
2022/12/05 06:35:41;;;;;;;23.73;11.68;;;4.00;99.90;;;;;;4869154;29;20045;-74
2022/12/05 06:38:07;;;;;;;23.70;11.68;;;4.00;99.90;;;;;;4852591;29;20037;-74
2022/12/05 06:40:33;;;;;;;21.30;10.52;;;4.00;99.90;;;;;;4868772;29;20056;-75
2022/12/05 06:42:59;;;;;;;22.95;11.40;;;4.00;99.90;;;;;;4869268;29;20029;-74
2022/12/05 06:45:25;;;;;;;22.17;10.50;;;4.00;99.90;;;;;;4864663;29;20193;-75
2022/12/05 06:47:51;;;;;;;24.33;10.98;;;4.00;99.90;;;;;;4852819;29;20337;-74
2022/12/05 06:50:18;;;;;;;20.35;10.25;;;4.00;99.90;;;;;;4868803;29;20033;-75
2022/12/05 06:52:44;;;;;;;20.58;9.82;;;4.10;99.90;;;;;;4869314;29;20334;-75
2022/12/05 06:55:10;;;;;;;19.92;9.50;;;4.10;99.90;;;;;;4869424;29;20021;-76
2022/12/05 06:57:36;;;;;;;21.17;9.82;;;4.20;99.90;;;;;;4868973;29;20101;-75
2022/12/05 07:03:05;;;;;;;21.02;10.00;;;4.20;99.90;;;;;;4830528;29;20231;-74
2022/12/05 07:05:32;;;;;;;22.77;9.57;;;4.20;99.90;;;;;;4852278;29;20069;-75
2022/12/05 07:07:57;;;;;;;20.13;9.32;;;4.30;99.90;;;;;;4850666;29;20049;-75
2022/12/05 07:10:23;;;;;;;18.65;9.57;;;4.30;99.90;;;;;;4853479;29;20089;-75
2022/12/05 07:12:49;;;;;;;18.45;9.45;;;4.30;99.90;;;;;;4838073;29;20057;-74
2022/12/05 07:15:15;;;;;;;19.48;9.98;;;4.30;99.90;;;;;;4854081;29;20220;-75
2022/12/05 07:17:40;;;;;;;18.20;9.45;;;4.30;99.90;;;;;;4854260;29;20143;-74
2022/12/05 07:20:09;;;;;;;19.95;10.05;;;4.30;99.90;;;;;;4854236;29;20097;-73
2022/12/05 07:22:35;;;;;;;;;;;4.30;99.90;;;;;;4854029;29;20353;-75
2022/12/05 07:25:01;;;;;;;23.42;10.38;;;4.30;99.90;;;;;;4855226;29;19916;-76
2022/12/05 07:27:27;;;;;;;20.35;9.77;;;4.30;99.90;;;;;;4853077;29;20042;-76
2022/12/05 07:29:52;;;;;;;19.63;10.68;;;4.20;99.90;;;;;;4853142;29;20068;-77
2022/12/05 07:32:18;;;;;;;20.30;10.45;;;4.30;99.90;;;;;;4836221;29;20220;-78
2022/12/05 07:34:44;;;;;;;20.45;10.43;;;4.30;99.90;;;;;;4821552;29;20073;-76
2022/12/05 07:37:12;;;;;;;18.63;10.05;;;4.30;99.90;;;;;;4838001;29;20026;-76
2022/12/05 07:39:38;;;;;;;18.52;9.68;;;4.40;99.90;;;;;;4838645;29;20030;-76
2022/12/05 07:42:04;;;;;;;21.05;10.73;;;4.40;99.90;;;;;;4839259;29;20041;-77
2022/12/05 07:44:30;;;;;;;23.30;10.70;;;4.50;99.90;;;;;;4841354;29;20022;-75
2022/12/05 07:46:56;;;;;;;21.48;9.95;;;4.60;99.90;;;;;;4861579;29;20022;-76
2022/12/05 07:49:22;;;;;;;20.55;9.65;;;4.70;99.90;;;;;;4860762;29;20037;-75
2022/12/05 07:51:48;;;;;;;21.27;9.73;;;4.80;99.90;;;;;;4861104;29;20067;-77
2022/12/05 07:54:14;;;;;;;21.85;9.65;;;4.90;99.90;;;;;;4856817;29;20029;-76
2022/12/05 07:56:41;;;;;;;22.00;10.15;;;4.90;99.90;;;;;;4839207;29;20078;-76
2022/12/05 07:59:07;;;;;;;20.02;9.57;;;4.90;99.90;;;;;;4839838;29;20026;-78
2022/12/05 08:01:33;;;;;;;22.30;11.00;;;4.90;99.90;;;;;;4837460;29;20034;-79
2022/12/05 08:03:59;;;;;;;22.52;10.05;;;5.00;99.90;;;;;;4832479;29;20038;-77
2022/12/05 08:06:27;;;;;;;24.23;12.70;;;5.10;99.90;;;;;;4818710;29;20281;-75
2022/12/05 08:08:54;;;;;;;28.33;14.60;;;5.20;99.90;;;;;;4863974;29;20255;-76
2022/12/05 08:11:23;;;;;;;22.98;11.85;;;5.30;99.90;;;;;;4836315;29;20105;-76
2022/12/05 08:13:49;;;;;;;19.00;9.93;;;5.40;99.90;;;;;;4835534;29;20042;-76
2022/12/05 08:16:18;;;;;;;19.13;9.85;;;5.50;99.90;;;;;;4835030;29;20034;-78
2022/12/05 08:18:44;;;;;;;21.92;10.52;;;5.50;99.90;;;;;;4835328;29;20074;-76
2022/12/05 08:21:13;;;;;;;19.05;9.88;;;5.60;99.90;;;;;;4834711;29;20363;-79
2022/12/05 08:23:39;;;;;;;;;;;5.60;99.90;;;;;;4835167;29;20037;-76
2022/12/05 08:26:09;;;;;;;26.17;13.90;;;5.60;99.90;;;;;;4835285;29;19919;-78
2022/12/05 08:28:37;;;;;;;30.30;17.50;;;5.60;99.90;;;;;;4837691;29;20029;-75
2022/12/05 08:31:13;;;;;;;20.45;10.80;;;5.50;99.90;;;;;;4835292;29;20413;-77
2022/12/05 08:33:39;;;;;;;19.63;9.73;;;5.50;99.90;;;;;;4850835;29;20117;-77
2022/12/05 08:36:09;;;;;;;17.92;9.75;;;5.50;99.90;;;;;;4819923;29;20026;-78
2022/12/05 08:38:35;;;;;;;17.30;8.10;;;5.60;99.90;;;;;;4834654;29;20045;-77
2022/12/05 08:41:02;;;;;;;16.27;8.45;;;5.50;99.90;;;;;;4834820;29;20075;-77
2022/12/05 08:43:29;;;;;;;15.50;8.30;;;5.50;99.90;;;;;;4850878;29;20223;-76
2022/12/05 08:45:55;;;;;;;16.52;8.30;;;5.60;99.90;;;;;;4834539;29;20049;-74
2022/12/05 08:48:22;;;;;;;18.65;9.05;;;5.60;99.90;;;;;;4837466;29;20018;-75
2022/12/05 08:50:49;;;;;;;16.38;8.73;;;5.60;99.90;;;;;;4831634;29;20026;-77
2022/12/05 08:53:16;;;;;;;18.45;9.75;;;5.60;99.90;;;;;;4816892;29;20295;-77
2022/12/05 08:55:42;;;;;;;15.57;8.68;;;5.70;99.90;;;;;;4843932;29;20066;-76
2022/12/05 08:58:08;;;;;;;19.08;10.00;;;5.70;99.90;;;;;;4816852;29;20082;-75
2022/12/05 09:00:34;;;;;;;17.98;9.55;;;5.70;99.90;;;;;;4843166;29;20239;-76
2022/12/05 09:02:59;;;;;;;25.17;11.88;;;5.70;99.90;;;;;;4849420;29;20076;-77
2022/12/05 09:05:26;;;;;;;22.58;11.63;;;5.80;99.90;;;;;;4850304;29;20034;-77
2022/12/05 09:07:52;;;;;;;18.55;9.27;;;5.90;99.90;;;;;;4835076;29;20423;-77
2022/12/05 09:10:18;;;;;;;17.90;9.43;;;6.00;99.90;;;;;;4816771;29;20026;-79
2022/12/05 09:12:44;;;;;;;17.05;9.25;;;6.10;99.90;;;;;;4843754;29;20040;-76
2022/12/05 09:15:10;;;;;;;17.55;9.48;;;6.00;99.90;;;;;;4850932;29;20064;-76
2022/12/05 09:17:37;;;;;;;15.05;8.63;;;6.00;99.90;;;;;;4834033;29;20083;-76
2022/12/05 09:20:04;;;;;;;17.50;8.93;;;5.90;99.90;;;;;;4834305;29;20346;-75
2022/12/05 09:22:30;;;;;;;17.65;8.48;;;5.80;99.90;;;;;;4819122;29;20101;-75
2022/12/05 09:24:55;;;;;;;17.67;9.00;;;5.80;99.90;;;;;;4834389;29;20042;-76
2022/12/05 09:27:21;;;;;;;14.95;8.43;;;5.90;99.90;;;;;;4850148;29;20057;-75
2022/12/05 09:29:47;;;;;;;16.15;8.50;;;5.90;99.90;;;;;;4849562;29;20342;-76
2022/12/05 09:32:13;;;;;;;14.52;8.13;;;6.00;99.90;;;;;;4850226;29;20034;-75
2022/12/05 09:34:38;;;;;;;16.80;8.82;;;6.20;99.90;;;;;;4849780;29;20029;-76
2022/12/05 09:37:06;;;;;;;14.50;8.75;;;6.30;99.90;;;;;;4850465;29;20078;-77
2022/12/05 09:39:32;;;;;;;15.52;8.60;;;6.40;99.90;;;;;;4833643;29;20053;-77
2022/12/05 09:42:04;;;;;;;14.18;7.55;;;6.50;99.90;;;;;;4849098;29;20060;-76
2022/12/05 09:44:41;;;;;;;15.82;8.45;;;6.50;99.90;;;;;;4850296;29;20038;-75
2022/12/05 09:47:28;;;;;;;16.92;9.13;;;6.60;99.90;;;;;;4850746;29;20041;-76
2022/12/05 09:50:00;;;;;;;15.23;8.65;;;6.50;99.90;;;;;;4850199;29;20146;-76
2022/12/05 09:52:40;;;;;;;16.73;8.50;;;6.40;99.90;;;;;;4833698;29;20273;-75
2022/12/05 09:55:15;;;;;;;16.35;8.65;;;6.40;99.90;;;;;;4834283;29;20283;-77
2022/12/05 09:57:56;;;;;;;15.38;7.72;;;6.30;99.90;;;;;;4833761;29;20043;-76
2022/12/05 10:00:22;;;;;;;12.38;7.10;;;6.30;99.90;;;;;;4849530;29;20101;-77
2022/12/05 10:02:57;;;;;;;13.70;7.90;;;6.30;99.90;;;;;;4849780;29;20244;-76
2022/12/05 10:05:39;;;;;;;15.27;7.45;;;6.50;99.90;;;;;;4849957;29;20042;-75
2022/12/05 10:08:23;;;;;;;44.47;26.38;;;6.50;99.90;;;;;;4850712;29;20034;-77
2022/12/05 10:11:01;;;;;;;20.85;11.65;;;6.50;99.90;;;;;;4850045;29;20048;-76
2022/12/05 10:13:45;;;;;;;16.67;9.60;;;6.50;99.90;;;;;;4850007;29;20041;-75
2022/12/05 10:16:31;;;;;;;15.00;8.40;;;6.50;99.90;;;;;;4850202;29;20041;-75
2022/12/05 10:19:13;;;;;;;15.35;8.27;;;6.60;99.90;;;;;;4850291;29;20110;-75
2022/12/05 10:22:03;;;;;;;15.55;7.18;;;6.70;99.90;;;;;;4833544;29;20030;-75
2022/12/05 10:24:35;;;;;;;20.40;11.95;;;6.70;99.90;;;;;;4833519;29;20316;-75
2022/12/05 10:27:13;;;;;;;16.83;8.48;;;6.70;99.90;;;;;;4850270;29;20316;-78
2022/12/05 10:29:57;;;;;;;18.58;8.55;;;6.80;99.90;;;;;;4849694;29;20058;-75
2022/12/05 10:32:29;;;;;;;17.35;8.30;;;6.80;99.90;;;;;;4849778;29;20046;-77
2022/12/05 10:35:12;;;;;;;15.70;8.00;;;6.80;99.90;;;;;;4850132;29;20037;-75
2022/12/05 10:37:38;;;;;;;15.02;8.00;;;6.80;99.90;;;;;;4850025;29;20029;-76
2022/12/05 10:40:05;;;;;;;13.13;7.13;;;7.00;99.90;;;;;;4848724;29;20215;-74
2022/12/05 10:42:34;;;;;;;14.75;7.55;;;7.20;99.90;;;;;;4849191;29;20208;-76
2022/12/05 10:45:05;;;;;;;11.98;6.90;;;7.50;99.90;;;;;;4852603;29;20033;-75
2022/12/05 10:47:32;;;;;;;13.05;7.00;;;7.80;99.90;;;;;;4837178;29;20255;-76
2022/12/05 10:50:26;;;;;;;27.85;17.48;;;8.10;99.90;;;;;;4834059;29;20034;-79
2022/12/05 10:52:59;;;;;;;13.23;8.57;;;8.40;99.90;;;;;;4835104;29;20058;-75
2022/12/05 10:55:36;;;;;;;11.38;6.85;;;8.70;99.90;;;;;;4818705;29;20034;-77
2022/12/05 10:58:28;;;;;;;9.95;6.10;;;8.80;99.90;;;;;;4829591;29;20026;-77
2022/12/05 11:01:06;;;;;;;11.02;6.18;;;9.00;99.90;;;;;;4852442;29;20030;-77
2022/12/05 11:03:40;;;;;;;11.05;6.30;;;9.00;99.90;;;;;;4852785;29;20251;-77
2022/12/05 11:06:24;;;;;;;11.27;6.30;;;9.10;99.90;;;;;;4837157;29;20037;-76
2022/12/05 11:08:53;;;;;;;16.35;9.80;;;9.10;99.90;;;;;;4853100;29;20219;-78
2022/12/05 11:11:32;;;;;;;14.00;8.30;;;9.10;99.90;;;;;;4853018;29;20041;-75
2022/12/05 11:14:02;;;;;;;11.68;7.00;;;9.10;99.90;;;;;;4836514;29;20045;-74
2022/12/05 11:16:34;;;;;;;12.73;7.45;;;9.00;99.90;;;;;;4836432;29;20215;-74
2022/12/05 11:19:21;;;;;;;12.40;6.75;;;9.00;99.90;;;;;;4852938;29;20030;-74
2022/12/05 11:21:50;;;;;;;12.25;6.78;;;8.90;99.90;;;;;;4852235;29;20034;-74
2022/12/05 11:24:34;;;;;;;14.30;6.82;;;8.90;99.90;;;;;;4852856;29;20036;-74
2022/12/05 11:27:22;;;;;;;12.57;6.75;;;8.90;99.90;;;;;;4853136;29;20037;-74
2022/12/05 11:30:13;;;;;;;14.02;7.50;;;9.00;99.90;;;;;;4835713;29;20049;-74
2022/12/05 11:32:39;;;;;;;12.75;7.30;;;9.20;99.90;;;;;;4835688;29;20228;-76
2022/12/05 11:35:11;;;;;;;12.63;7.30;;;9.40;99.90;;;;;;4852329;29;20048;-75
2022/12/05 11:37:43;;;;;;;13.07;7.50;;;9.60;99.90;;;;;;4835713;29;20038;-76
2022/12/05 11:40:24;;;;;;;11.55;7.10;;;9.70;99.90;;;;;;4852830;29;20070;-78
2022/12/05 11:43:14;;;;;;;10.85;6.93;;;9.90;99.90;;;;;;4852224;29;20105;-74
2022/12/05 11:46:08;;;;;;;12.27;6.75;;;10.30;99.90;;;;;;4852067;29;20296;-73
2022/12/05 11:48:43;;;;;;;12.32;7.25;;;11.00;99.90;;;;;;4851784;29;20033;-74
2022/12/05 11:51:23;;;;;;;11.90;6.60;;;11.50;99.90;;;;;;4852857;29;20128;-74
2022/12/05 11:54:02;;;;;;;12.75;7.38;;;11.90;99.90;;;;;;4835522;29;20038;-73
2022/12/05 11:56:36;;;;;;;11.20;6.88;;;12.10;99.90;;;;;;4850862;29;20211;-74
2022/12/05 11:59:20;;;;;;;15.40;6.75;;;12.00;99.90;;;;;;4852393;29;20033;-77
2022/12/05 12:02:20;;;;;;;12.57;7.75;;;11.80;99.90;;;;;;4850941;29;20053;-77
2022/12/05 12:04:49;;;;;;;15.15;7.65;;;11.40;99.90;;;;;;4852347;29;20033;-76
2022/12/05 12:07:30;;;;;;;13.52;7.90;;;11.20;99.90;;;;;;4852101;29;20034;-76
2022/12/05 12:10:30;;;;;;;12.02;7.22;;;11.10;99.90;;;;;;4851920;29;20411;-78
2022/12/05 12:13:11;;;;;;;13.50;7.25;;;10.90;99.90;;;;;;4852185;29;20029;-75
2022/12/05 12:15:58;;;;;;;15.27;7.97;;;10.50;99.90;;;;;;4851613;29;20487;-75
2022/12/05 12:18:53;;;;;;;18.73;12.00;;;10.20;99.90;;;;;;4851960;29;20101;-74
2022/12/05 12:21:39;;;;;;;15.25;8.45;;;9.80;99.90;;;;;;4851544;29;20026;-74
2022/12/05 12:24:33;;;;;;;15.52;7.35;;;9.50;99.90;;;;;;4851917;29;20105;-74
2022/12/05 12:27:31;;;;;;;13.23;7.75;;;9.40;99.90;;;;;;4835636;29;20391;-74
2022/12/05 12:30:15;;;;;;;;;;;9.10;99.90;;;;;;4845972;29;20042;-74
2022/12/05 12:33:03;;;;;;;16.25;7.65;;;8.90;99.90;;;;;;4842292;29;19939;-74
2022/12/05 12:35:58;;;;;;;12.65;7.68;;;8.90;99.90;;;;;;4851063;29;20026;-74
2022/12/05 12:38:46;;;;;;;13.77;7.97;;;8.80;99.90;;;;;;4836480;29;20057;-76
2022/12/05 12:41:18;;;;;;;13.38;7.88;;;8.80;99.90;;;;;;4851484;29;20037;-75
2022/12/05 12:44:21;;;;;;;12.15;7.50;;;8.70;99.90;;;;;;4850693;29;20101;-75
2022/12/05 12:46:52;;;;;;;15.57;8.55;;;8.80;99.90;;;;;;4849529;29;20029;-75
2022/12/05 12:49:39;;;;;;;13.40;8.20;;;8.90;99.90;;;;;;4851178;29;20041;-76
2022/12/05 12:52:16;;;;;;;13.48;7.28;;;9.10;99.90;;;;;;4835176;29;20057;-75
2022/12/05 12:54:56;;;;;;;13.15;7.25;;;9.20;99.90;;;;;;4849470;29;20061;-75
2022/12/05 12:57:28;;;;;;;13.93;7.72;;;9.20;99.90;;;;;;4851252;29;20046;-76
2022/12/05 13:00:03;;;;;;;14.80;8.20;;;9.20;99.90;;;;;;4850878;29;20022;-75
2022/12/05 13:02:44;;;;;;;15.55;7.78;;;9.30;99.90;;;;;;4833837;29;20076;-75
2022/12/05 13:05:31;;;;;;;13.27;7.22;;;9.20;99.90;;;;;;4851009;29;20041;-75
2022/12/05 13:08:05;;;;;;;14.43;7.95;;;9.00;99.90;;;;;;4851145;29;20049;-76
2022/12/05 13:10:38;;;;;;;12.50;7.70;;;9.00;99.90;;;;;;4834735;29;20331;-76
2022/12/05 13:13:06;;;;;;;13.80;8.25;;;8.90;99.90;;;;;;4851127;29;20028;-75
2022/12/05 13:15:34;;;;;;;;;;;8.90;99.90;;;;;;4851043;29;20046;-75
2022/12/05 13:18:03;;;;;;;12.75;7.68;;;8.80;99.90;;;;;;4850492;29;19920;-75
2022/12/05 13:20:34;;;;;;;14.18;7.63;;;8.70;99.90;;;;;;4834906;29;20041;-75
2022/12/05 13:23:01;;;;;;;25.80;14.80;;;8.70;99.90;;;;;;4851216;29;20034;-75
2022/12/05 13:25:31;;;;;;;32.33;19.55;;;8.70;99.90;;;;;;4850744;29;20026;-75
2022/12/05 13:28:04;;;;;;;26.55;16.55;;;8.80;99.90;;;;;;4853973;29;20037;-75
2022/12/05 13:30:31;;;;;;;23.17;14.60;;;8.70;99.90;;;;;;4863022;29;20077;-75
2022/12/05 13:33:05;;;;;;;16.10;9.32;;;8.80;99.90;;;;;;4861759;29;20069;-75
2022/12/05 13:44:11;;;;;;;16.63;8.52;;;8.50;99.90;;;;;;4850472;29;20038;-74
2022/12/05 13:46:41;;;;;;;17.00;8.38;;;8.40;99.90;;;;;;4849636;29;20033;-74
2022/12/05 13:49:51;;;;;;;12.88;7.65;;;8.40;99.90;;;;;;4849999;29;20072;-74
2022/12/05 13:52:30;;;;;;;14.40;8.63;;;8.20;99.90;;;;;;4845702;29;20044;-75
2022/12/05 13:55:15;;;;;;;14.07;7.93;;;8.10;99.90;;;;;;4868669;29;20037;-74
2022/12/05 13:57:43;;;;;;;14.80;8.88;;;8.00;99.90;;;;;;4868160;29;20052;-75
2022/12/05 14:00:09;;;;;;;15.23;8.23;;;8.00;99.90;;;;;;4868806;29;20037;-75
2022/12/05 14:02:40;;;;;;;15.43;8.30;;;7.90;99.90;;;;;;4868086;29;20053;-75
2022/12/05 14:05:13;;;;;;;17.13;8.55;;;7.90;99.90;;;;;;4868436;29;20041;-75
2022/12/05 14:07:46;;;;;;;34.08;19.15;;;7.90;99.90;;;;;;4867973;29;20102;-76
2022/12/05 14:10:15;;;;;;;30.90;16.83;;;7.90;99.90;;;;;;4845651;29;20581;-75
2022/12/05 14:12:58;;;;;;;23.75;12.07;;;7.80;99.90;;;;;;4849341;29;20042;-75
2022/12/05 14:15:35;;;;;;;16.48;9.05;;;7.90;99.90;;;;;;4849760;29;20052;-75
2022/12/05 14:18:10;;;;;;;17.42;9.45;;;8.10;99.90;;;;;;4818159;29;20192;-75
2022/12/05 14:21:10;;;;;;;20.75;10.45;;;8.10;99.90;;;;;;4832927;29;20037;-75
2022/12/05 14:24:00;;;;;;;19.98;12.13;;;8.30;99.90;;;;;;4849282;29;20034;-76
2022/12/05 14:26:54;;;;;;;16.52;9.90;;;8.30;99.90;;;;;;4850057;29;20044;-75
2022/12/05 14:29:47;;;;;;;17.60;9.75;;;8.30;99.90;;;;;;4849806;29;20054;-75
2022/12/05 14:32:28;;;;;;;19.52;10.50;;;8.10;99.90;;;;;;4849957;29;20057;-75
2022/12/05 14:35:11;;;;;;;15.95;8.60;;;8.10;99.90;;;;;;4849722;29;20041;-75
2022/12/05 14:37:54;;;;;;;17.23;8.93;;;8.00;99.90;;;;;;4849093;29;20030;-75
2022/12/05 14:40:26;;;;;;;15.85;7.72;;;7.90;99.90;;;;;;4864687;29;20223;-75
2022/12/05 14:43:05;;;;;;;15.95;8.98;;;7.80;99.90;;;;;;4867814;29;20038;-75
2022/12/05 14:45:40;;;;;;;15.85;8.23;;;7.80;99.90;;;;;;4867962;29;20053;-76
2022/12/05 14:48:12;;;;;;;13.43;7.60;;;7.70;99.90;;;;;;4855453;29;20117;-76
2022/12/05 14:50:52;;;;;;;14.77;8.40;;;7.60;99.90;;;;;;4833011;29;20030;-75
2022/12/05 14:53:31;;;;;;;16.13;8.60;;;7.50;99.90;;;;;;4858590;29;20037;-75
2022/12/05 14:55:59;;;;;;;14.48;8.32;;;7.40;99.90;;;;;;4862857;29;20042;-77
2022/12/05 14:58:28;;;;;;;;;;;7.40;99.90;;;;;;4850141;29;20094;-75
2022/12/05 15:01:05;;;;;;;14.07;8.10;;;7.40;99.90;;;;;;4849217;29;19908;-75
2022/12/05 15:03:37;;;;;;;14.27;8.88;;;7.30;99.90;;;;;;4849658;29;20053;-75
2022/12/05 15:06:09;;;;;;;16.77;9.43;;;7.30;99.90;;;;;;4840828;29;20313;-74
2022/12/05 15:08:44;;;;;;;15.18;8.88;;;7.20;99.90;;;;;;4849503;29;20117;-76
2022/12/05 15:11:28;;;;;;;22.05;12.52;;;7.10;99.90;;;;;;4833232;29;20041;-75
2022/12/05 15:14:04;;;;;;;16.95;10.30;;;7.10;99.90;;;;;;4838610;29;20225;-74
2022/12/05 15:16:32;;;;;;;16.00;9.23;;;7.00;99.90;;;;;;4838302;29;20181;-75
2022/12/05 15:19:04;;;;;;;18.52;9.98;;;7.00;99.90;;;;;;4867559;29;20033;-74
2022/12/05 15:21:42;;;;;;;16.95;8.63;;;7.00;99.90;;;;;;4864007;29;20034;-77
2022/12/05 15:24:12;;;;;;;22.83;13.43;;;6.80;99.90;;;;;;4849267;29;20037;-76
2022/12/05 15:26:39;;;;;;;18.27;10.68;;;6.70;99.90;;;;;;4831561;29;20357;-76
2022/12/05 15:29:06;;;;;;;20.05;11.05;;;6.50;99.90;;;;;;4849215;29;20049;-76
2022/12/05 15:31:38;;;;;;;16.70;9.80;;;6.40;99.90;;;;;;4845563;29;20046;-75
2022/12/05 15:34:12;;;;;;;18.40;11.27;;;6.30;99.90;;;;;;4834703;29;20031;-75
2022/12/05 15:36:42;;;;;;;19.15;10.13;;;6.20;99.90;;;;;;4834344;29;20042;-75
2022/12/05 15:39:27;;;;;;;25.30;11.70;;;6.10;99.90;;;;;;4830475;29;20360;-76
2022/12/05 15:41:54;;;;;;;24.15;13.88;;;5.90;99.90;;;;;;4852135;29;20059;-75
2022/12/05 15:44:21;;;;;;;18.83;10.85;;;5.90;99.90;;;;;;4852440;29;20025;-75
2022/12/05 15:46:53;;;;;;;19.42;10.65;;;5.80;99.90;;;;;;4851927;29;20221;-75
2022/12/05 15:49:26;;;;;;;19.50;11.40;;;5.70;99.90;;;;;;4852402;29;20041;-76
2022/12/05 15:52:03;;;;;;;23.35;13.38;;;5.60;99.90;;;;;;4851682;29;20036;-75
2022/12/05 15:54:33;;;;;;;23.15;12.52;;;5.60;99.90;;;;;;4834158;29;20034;-75
2022/12/05 15:57:12;;;;;;;32.40;17.90;;;5.50;99.90;;;;;;4832095;29;20038;-75
2022/12/05 16:00:05;;;;;;;22.77;13.43;;;5.40;99.90;;;;;;4834022;29;20035;-75
2022/12/05 16:02:56;;;;;;;27.40;15.43;;;5.30;99.90;;;;;;4833271;29;20114;-76
2022/12/05 16:05:33;;;;;;;28.98;14.93;;;5.30;99.90;;;;;;4832743;29;20503;-74
2022/12/05 16:08:02;;;;;;;28.33;16.17;;;5.40;99.90;;;;;;4833387;29;20042;-76
2022/12/05 16:10:29;;;;;;;25.67;14.23;;;5.40;99.90;;;;;;4844152;29;20057;-76
2022/12/05 16:13:01;;;;;;;38.65;20.00;;;5.40;99.90;;;;;;4851623;29;20042;-75
2022/12/05 16:15:27;;;;;;;26.27;13.60;;;5.40;99.90;;;;;;4852080;29;20100;-76
2022/12/05 16:17:55;;;;;;;36.50;21.83;;;5.40;99.90;;;;;;4835423;29;20217;-72
2022/12/05 16:20:23;;;;;;;26.35;14.48;;;5.40;99.90;;;;;;4851963;29;20334;-75
2022/12/05 16:22:53;;;;;;;41.50;23.20;;;5.40;99.90;;;;;;4834923;29;20232;-74
2022/12/05 16:25:24;;;;;;;28.02;16.05;;;5.50;99.90;;;;;;4851983;29;20379;-75
2022/12/05 16:28:01;;;;;;;26.45;15.45;;;5.50;99.90;;;;;;4851178;29;20038;-74
2022/12/05 16:30:29;;;;;;;25.98;15.48;;;5.60;99.90;;;;;;4835728;29;20098;-78
2022/12/05 16:33:14;;;;;;;24.73;14.67;;;5.70;99.90;;;;;;4835047;29;20053;-74
2022/12/05 16:35:45;;;;;;;28.00;15.85;;;5.80;99.90;;;;;;4851020;29;20037;-75
2022/12/05 16:38:18;;;;;;;30.33;17.17;;;5.80;99.90;;;;;;4851456;29;20033;-74
2022/12/05 16:41:00;;;;;;;24.70;14.15;;;5.80;99.90;;;;;;4851573;29;20086;-75
2022/12/05 16:43:31;;;;;;;23.73;13.65;;;5.90;99.90;;;;;;4834788;29;20053;-75
2022/12/05 16:46:09;;;;;;;17.63;10.30;;;5.90;99.90;;;;;;4851244;29;20060;-74
2022/12/05 16:48:36;;;;;;;19.25;10.73;;;5.90;99.90;;;;;;4835208;29;20213;-74
2022/12/05 16:51:20;;;;;;;22.95;12.75;;;5.90;99.90;;;;;;4851366;29;20279;-75
2022/12/05 16:53:52;;;;;;;38.10;20.52;;;5.90;99.90;;;;;;4848575;29;20395;-74
2022/12/05 16:56:32;;;;;;;22.52;12.93;;;5.90;99.90;;;;;;4869665;29;20037;-74
2022/12/05 16:59:02;;;;;;;18.63;11.68;;;5.90;99.90;;;;;;4869282;29;20037;-74
2022/12/05 17:01:31;;;;;;;18.58;10.73;;;5.90;99.90;;;;;;4869641;29;20026;-75
2022/12/05 17:03:58;;;;;;;16.13;9.88;;;5.90;99.90;;;;;;4852306;29;20061;-74
2022/12/05 17:06:25;;;;;;;20.05;10.30;;;5.90;99.90;;;;;;4838000;29;20085;-74
2022/12/05 17:08:52;;;;;;;16.67;9.82;;;5.80;99.90;;;;;;4868790;29;20209;-73
2022/12/05 17:11:23;;;;;;;18.20;10.40;;;5.90;99.90;;;;;;4851746;29;20269;-74
2022/12/05 17:13:50;;;;;;;17.98;10.48;;;5.90;99.90;;;;;;4850594;29;20062;-75
2022/12/05 17:16:17;;;;;;;17.00;10.25;;;6.00;99.90;;;;;;4819863;29;20208;-73
2022/12/05 17:18:44;;;;;;;17.27;10.25;;;5.90;99.90;;;;;;4850535;29;20040;-73
2022/12/05 17:21:32;;;;;;;18.75;10.48;;;5.90;99.90;;;;;;4850410;29;20034;-73
2022/12/05 17:23:58;;;;;;;18.83;10.73;;;5.90;99.90;;;;;;4850421;29;20046;-75
2022/12/05 17:26:24;;;;;;;19.35;9.88;;;6.00;99.90;;;;;;4850883;29;20034;-74
2022/12/05 17:28:50;;;;;;;20.13;11.57;;;6.00;99.90;;;;;;4850302;29;20212;-73
2022/12/05 17:31:19;;;;;;;17.00;9.90;;;5.90;99.90;;;;;;4850714;29;20038;-73
2022/12/05 17:33:46;;;;;;;19.13;10.57;;;5.90;99.90;;;;;;4833965;29;20113;-73
2022/12/05 17:36:13;;;;;;;17.30;9.98;;;5.90;99.90;;;;;;4850566;29;20026;-75
2022/12/05 17:38:42;;;;;;;15.10;9.30;;;5.90;99.90;;;;;;4850777;29;20038;-74
2022/12/05 17:41:15;;;;;;;19.33;10.52;;;5.90;99.90;;;;;;4851257;29;20033;-73
2022/12/05 17:43:40;;;;;;;23.67;12.73;;;6.00;99.90;;;;;;4850646;29;20045;-74
2022/12/05 17:46:07;;;;;;;18.00;10.68;;;6.00;99.90;;;;;;4850214;29;20033;-75
2022/12/05 17:48:33;;;;;;;18.73;10.63;;;6.00;99.90;;;;;;4851646;29;20434;-74
2022/12/05 17:51:01;;;;;;;19.50;11.55;;;6.00;99.90;;;;;;4849980;29;20045;-73
2022/12/05 17:53:27;;;;;;;20.05;11.70;;;6.00;99.90;;;;;;4844980;29;20080;-73
2022/12/05 17:55:53;;;;;;;19.48;11.15;;;5.90;99.90;;;;;;4851978;29;20267;-75
2022/12/05 17:58:19;;;;;;;19.92;9.85;;;6.00;99.90;;;;;;4852332;29;20064;-73
2022/12/05 18:00:45;;;;;;;17.77;9.93;;;6.00;99.90;;;;;;4851907;29;20037;-75
2022/12/05 18:03:16;;;;;;;19.25;11.23;;;6.00;99.90;;;;;;4851956;29;20068;-75
2022/12/05 18:05:44;;;;;;;20.77;11.80;;;6.00;99.90;;;;;;4868958;29;20045;-75
2022/12/05 18:08:11;;;;;;;20.45;11.20;;;5.90;99.90;;;;;;4868739;29;20338;-75
2022/12/05 18:10:41;;;;;;;23.70;13.30;;;5.90;99.90;;;;;;4857298;29;20069;-79
2022/12/05 18:13:07;;;;;;;23.25;13.20;;;5.80;99.90;;;;;;4833530;29;20026;-78
2022/12/05 18:15:33;;;;;;;22.05;12.02;;;5.70;99.90;;;;;;4850285;29;20038;-78
2022/12/05 18:18:02;;;;;;;21.17;12.70;;;5.70;99.90;;;;;;4849637;29;20036;-75
2022/12/05 18:20:28;;;;;;;37.15;22.42;;;5.70;99.90;;;;;;4849814;29;20049;-74
2022/12/05 18:22:54;;;;;;;40.50;21.83;;;5.70;99.90;;;;;;4849427;29;20048;-76
2022/12/05 18:25:20;;;;;;;24.55;13.82;;;5.70;99.90;;;;;;4850047;29;20089;-77
2022/12/05 18:27:46;;;;;;;24.02;12.55;;;5.70;99.90;;;;;;4833249;29;20041;-75
2022/12/05 18:30:12;;;;;;;24.27;12.68;;;5.70;99.90;;;;;;4833855;29;20231;-76
2022/12/05 18:32:38;;;;;;;24.17;14.13;;;5.60;99.90;;;;;;4849806;29;20049;-78
2022/12/05 18:35:07;;;;;;;24.95;14.55;;;5.60;99.90;;;;;;4833126;29;20033;-74
2022/12/05 18:37:36;;;;;;;27.05;15.73;;;5.60;99.90;;;;;;4849686;29;20198;-77
2022/12/05 18:40:04;;;;;;;31.17;17.20;;;5.60;99.90;;;;;;4832740;29;20732;-75
2022/12/05 18:42:30;;;;;;;48.67;27.85;;;5.60;99.90;;;;;;4849832;29;20034;-75
2022/12/05 18:44:56;;;;;;;48.30;28.17;;;5.60;99.90;;;;;;4849238;29;20046;-75
2022/12/05 18:47:23;;;;;;;47.63;27.40;;;5.60;99.90;;;;;;4850468;29;20209;-75
2022/12/05 18:49:49;;;;;;;32.80;18.98;;;5.70;99.90;;;;;;4832692;29;20062;-74
2022/12/05 18:52:15;;;;;;;25.75;14.88;;;5.70;99.90;;;;;;4833501;29;20030;-74
2022/12/05 18:54:40;;;;;;;24.27;13.00;;;5.70;99.90;;;;;;4849659;29;20030;-75
2022/12/05 18:57:06;;;;;;;21.67;12.10;;;5.70;99.90;;;;;;4849275;29;20589;-74
2022/12/05 18:59:32;;;;;;;21.75;13.10;;;5.60;99.90;;;;;;4849509;29;20336;-76
2022/12/05 19:01:59;;;;;;;24.50;14.13;;;5.50;99.90;;;;;;4848676;29;20292;-75
2022/12/05 19:04:25;;;;;;;22.23;13.63;;;5.50;99.90;;;;;;4850265;29;20328;-77
2022/12/05 19:06:53;;;;;;;30.52;18.25;;;5.50;99.90;;;;;;4838584;29;20078;-73
2022/12/05 19:09:21;;;;;;;28.85;13.35;;;5.50;99.90;;;;;;4838472;29;20065;-76
2022/12/05 19:11:50;;;;;;;24.00;12.88;;;5.40;99.90;;;;;;4841276;29;20058;-75
2022/12/05 19:14:18;;;;;;;23.08;12.68;;;5.50;99.90;;;;;;4857471;29;20069;-75
2022/12/05 19:16:46;;;;;;;22.42;12.05;;;5.50;99.90;;;;;;4852818;29;20037;-76
2022/12/05 19:19:15;;;;;;;29.33;15.48;;;5.60;99.90;;;;;;4853048;29;20030;-74
2022/12/05 19:21:41;;;;;;;39.75;22.00;;;5.60;99.90;;;;;;4852957;29;20115;-75
2022/12/05 19:24:09;;;;;;;36.17;21.33;;;5.60;99.90;;;;;;4835861;29;20525;-73